createdAt,value
2023-05-10T00:00:40.890Z,67.92
2023-05-10T00:03:25.900Z,67.73
2023-05-10T00:06:10.703Z,67.52
2023-05-10T00:08:55.641Z,68.00
2023-05-10T00:11:40.720Z,67.82
2023-05-10T00:14:25.595Z,69.10
2023-05-10T00:17:10.664Z,69.74
2023-05-10T00:19:55.510Z,69.44
2023-05-10T00:22:40.584Z,68.48
2023-05-10T00:25:25.700Z,67.92
2023-05-10T00:28:10.557Z,68.71
2023-05-10T00:30:55.646Z,66.76
2023-05-10T00:33:40.568Z,66.45
2023-05-10T00:36:25.759Z,65.84
2023-05-10T00:39:10.688Z,64.30
2023-05-10T00:41:55.856Z,64.77
2023-05-10T00:44:40.815Z,66.31
2023-05-10T00:47:25.961Z,67.75
2023-05-10T00:50:11.031Z,68.78
2023-05-10T00:52:55.897Z,70.14
2023-05-10T00:55:41.000Z,70.02
2023-05-10T00:58:26.011Z,70.52
2023-05-10T01:01:11.099Z,70.20
2023-05-10T01:03:56.078Z,70.08
2023-05-10T01:06:41.009Z,71.15
2023-05-10T01:09:25.894Z,71.75
2023-05-10T01:12:11.043Z,71.74
2023-05-10T01:14:56.166Z,71.84
2023-05-10T01:17:41.042Z,69.73
2023-05-10T01:20:26.134Z,68.73
2023-05-10T01:23:10.967Z,68.67
2023-05-10T01:25:56.048Z,68.61
2023-05-10T01:28:41.000Z,68.59
2023-05-10T01:31:26.031Z,68.17
2023-05-10T01:34:10.968Z,67.78
2023-05-10T01:36:55.927Z,67.90
2023-05-10T01:39:41.213Z,66.93
2023-05-10T01:42:26.246Z,66.29
2023-05-10T01:45:11.578Z,64.46
2023-05-10T01:47:56.639Z,64.77
2023-05-10T01:50:41.506Z,66.92
2023-05-10T01:53:26.413Z,68.41
2023-05-10T01:56:11.287Z,67.83
2023-05-10T01:58:56.443Z,68.97
2023-05-10T02:01:41.369Z,67.33
2023-05-10T02:04:26.479Z,67.51
2023-05-10T02:07:11.346Z,67.79
2023-05-10T02:09:56.417Z,66.76
2023-05-10T02:12:41.428Z,66.51
2023-05-10T02:15:26.389Z,66.24
2023-05-10T02:18:11.349Z,66.71
2023-05-10T02:20:56.502Z,67.31
2023-05-10T02:23:41.685Z,68.67
2023-05-10T02:26:26.486Z,68.28
2023-05-10T02:29:11.648Z,68.06
2023-05-10T02:31:56.580Z,67.33
2023-05-10T02:34:41.571Z,67.90
2023-05-10T02:37:26.511Z,68.62
2023-05-10T02:40:11.501Z,68.88
2023-05-10T02:42:56.694Z,67.52
2023-05-10T02:45:41.712Z,67.57
2023-05-10T02:48:26.822Z,67.74
2023-05-10T02:51:11.574Z,66.81
2023-05-10T02:53:56.757Z,67.03
2023-05-10T02:56:41.632Z,66.53
2023-05-10T02:59:26.745Z,66.15
2023-05-10T03:02:11.749Z,65.84
2023-05-10T03:04:56.741Z,67.17
2023-05-10T03:07:41.797Z,66.23
2023-05-10T03:10:26.640Z,66.56
2023-05-10T03:13:11.927Z,65.89
2023-05-10T03:15:56.840Z,65.64
2023-05-10T03:18:41.794Z,65.52
2023-05-10T03:21:26.592Z,66.88
2023-05-10T03:24:11.743Z,66.73
2023-05-10T03:26:56.769Z,66.64
2023-05-10T03:29:41.776Z,66.69
2023-05-10T03:32:26.854Z,67.23
2023-05-10T03:35:11.885Z,66.66
2023-05-10T03:37:56.986Z,65.72
2023-05-10T03:40:41.806Z,64.58
2023-05-10T03:43:26.918Z,64.27
2023-05-10T03:46:11.782Z,63.72
2023-05-10T03:48:56.775Z,64.10
2023-05-10T03:51:41.696Z,65.22
2023-05-10T03:54:26.636Z,64.77
2023-05-10T03:57:11.742Z,65.91
2023-05-10T03:59:56.623Z,65.36
2023-05-10T04:02:41.851Z,64.45
2023-05-10T04:05:26.717Z,64.06
2023-05-10T04:08:11.809Z,63.16
2023-05-10T04:10:56.833Z,63.01
2023-05-10T04:13:41.903Z,63.61
2023-05-10T04:16:27.166Z,64.52
2023-05-10T04:19:12.115Z,63.90
2023-05-10T04:21:57.162Z,62.93
2023-05-10T04:24:42.132Z,62.65
2023-05-10T04:27:27.231Z,62.68
2023-05-10T04:30:12.141Z,63.26
2023-05-10T04:32:57.115Z,63.52
2023-05-10T04:35:42.159Z,63.90
2023-05-10T04:38:27.269Z,63.69
2023-05-10T04:41:12.474Z,63.32
2023-05-10T04:43:57.391Z,64.16
2023-05-10T04:46:42.542Z,66.26
2023-05-10T04:49:27.276Z,65.20
2023-05-10T04:52:12.246Z,64.87
2023-05-10T04:54:57.182Z,64.76
2023-05-10T04:57:42.086Z,63.26
2023-05-10T05:00:27.051Z,62.68
2023-05-10T05:03:12.048Z,62.95
2023-05-10T05:05:58.176Z,62.62
2023-05-10T05:08:43.046Z,61.32
2023-05-10T05:11:28.080Z,61.50
2023-05-10T05:14:13.068Z,61.35
2023-05-10T05:16:57.990Z,61.66
2023-05-10T05:19:43.004Z,61.47
2023-05-10T05:22:27.977Z,60.63
2023-05-10T05:25:13.038Z,58.91
2023-05-10T05:27:57.887Z,59.14
2023-05-10T05:30:42.944Z,59.28
2023-05-10T05:33:27.898Z,57.23
2023-05-10T05:36:12.959Z,58.18
2023-05-10T05:38:57.904Z,58.94
2023-05-10T05:41:42.956Z,60.82
2023-05-10T05:44:28.003Z,60.64
2023-05-10T05:47:12.885Z,60.23
2023-05-10T05:49:57.858Z,58.43
2023-05-10T05:52:42.851Z,61.46
2023-05-10T05:55:27.855Z,60.39
2023-05-10T05:58:12.736Z,59.37
2023-05-10T06:00:57.966Z,59.28
2023-05-10T06:03:43.095Z,57.86
2023-05-10T06:06:27.952Z,58.33
2023-05-10T06:09:12.918Z,57.73
2023-05-10T06:11:57.855Z,54.26
2023-05-10T06:14:42.899Z,57.70
2023-05-10T06:17:27.948Z,60.33
2023-05-10T06:20:12.959Z,60.37
2023-05-10T06:22:57.888Z,60.42
2023-05-10T06:25:42.972Z,60.13
2023-05-10T06:28:27.986Z,61.22
2023-05-10T06:31:13.043Z,60.53
2023-05-10T06:33:58.154Z,62.20
2023-05-10T06:36:43.126Z,63.86
2023-05-10T06:39:28.332Z,64.11
2023-05-10T06:42:13.505Z,63.13
2023-05-10T06:44:58.607Z,63.76
2023-05-10T06:47:43.669Z,62.91
2023-05-10T06:50:28.663Z,60.71
2023-05-10T06:53:13.785Z,61.85
2023-05-10T06:55:58.751Z,62.79
2023-05-10T06:58:43.746Z,62.58
2023-05-10T07:01:28.735Z,61.07
2023-05-10T07:04:13.810Z,60.11
2023-05-10T07:06:58.873Z,59.65
2023-05-10T07:09:44.016Z,59.36
2023-05-10T07:12:28.971Z,59.43
2023-05-10T07:15:13.929Z,56.80
2023-05-10T07:17:59.099Z,56.01
2023-05-10T07:20:43.911Z,56.33
2023-05-10T07:23:28.991Z,56.86
2023-05-10T07:26:14.004Z,59.91
2023-05-10T07:28:59.094Z,59.06
2023-05-10T07:31:44.090Z,56.76
2023-05-10T07:34:29.207Z,54.83
2023-05-10T07:37:14.304Z,55.90
2023-05-10T07:39:59.159Z,59.96
2023-05-10T07:42:44.246Z,60.00
2023-05-10T07:45:29.211Z,59.33
2023-05-10T07:48:14.335Z,59.73
2023-05-10T07:50:59.230Z,61.11
2023-05-10T07:53:44.273Z,63.65
2023-05-10T07:56:29.387Z,63.25
2023-05-10T07:59:14.433Z,62.72
2023-05-10T08:01:59.589Z,63.21
2023-05-10T08:04:44.381Z,64.23
2023-05-10T08:07:29.488Z,65.11
2023-05-10T08:10:14.710Z,64.87
2023-05-10T08:12:59.515Z,66.28
2023-05-10T08:15:44.497Z,67.56
2023-05-10T08:18:29.527Z,68.31
2023-05-10T08:21:14.617Z,67.15
2023-05-10T08:23:59.611Z,66.58
2023-05-10T08:26:44.715Z,64.36
2023-05-10T08:29:32.683Z,63.65
2023-05-10T08:32:20.487Z,62.30
2023-05-10T08:35:05.532Z,61.52
2023-05-10T08:37:50.557Z,62.34
2023-05-10T08:40:35.718Z,62.28
2023-05-10T08:43:20.740Z,61.05
2023-05-10T08:46:05.736Z,60.06
2023-05-10T08:48:50.679Z,60.51
2023-05-10T08:51:35.662Z,61.51
2023-05-10T08:54:20.783Z,62.37
2023-05-10T08:57:05.686Z,63.54
2023-05-10T08:59:50.824Z,63.51
2023-05-10T09:02:35.843Z,63.32
2023-05-10T09:05:20.895Z,61.47
2023-05-10T09:08:05.837Z,63.12
2023-05-10T09:10:50.588Z,63.53
2023-05-10T09:13:35.828Z,61.94
2023-05-10T09:16:22.268Z,63.96
2023-05-10T09:19:07.465Z,63.76
2023-05-10T09:21:52.391Z,62.77
2023-05-10T09:24:37.343Z,60.87
2023-05-10T09:27:22.345Z,61.33
2023-05-10T09:30:07.307Z,60.76
2023-05-10T09:32:52.363Z,57.28
2023-05-10T09:35:37.126Z,61.18
2023-05-10T09:38:22.311Z,59.16
2023-05-10T09:41:07.284Z,59.04
2023-05-10T09:43:52.243Z,56.53
2023-05-10T09:46:37.204Z,56.62
2023-05-10T09:49:22.119Z,54.50
2023-05-10T09:52:07.107Z,53.00
2023-05-10T09:54:52.112Z,51.63
2023-05-10T09:57:37.122Z,50.61
2023-05-10T10:00:22.033Z,50.84
2023-05-10T10:03:07.174Z,48.70
2023-05-10T10:05:51.860Z,47.52
2023-05-10T10:08:36.928Z,48.50
2023-05-10T10:11:21.907Z,48.13
2023-05-10T10:14:07.018Z,47.51
2023-05-10T10:17:05.833Z,47.57
2023-05-10T10:19:52.258Z,48.03
2023-05-10T10:22:37.300Z,46.17
2023-05-10T10:25:22.220Z,51.17
2023-05-10T10:28:06.998Z,48.77
2023-05-10T10:30:51.868Z,48.48
2023-05-10T10:33:36.900Z,44.40
2023-05-10T10:36:21.957Z,44.36
2023-05-10T10:39:07.009Z,46.33
2023-05-10T10:41:52.109Z,47.25
2023-05-10T10:44:37.054Z,47.60
2023-05-10T10:47:22.554Z,46.31
2023-05-10T10:50:07.762Z,49.22
2023-05-10T10:52:52.844Z,49.90
2023-05-10T10:55:37.784Z,51.70
2023-05-10T10:58:22.891Z,48.50
2023-05-10T11:01:08.036Z,47.26
2023-05-10T11:03:52.959Z,47.40
2023-05-10T11:06:37.955Z,48.30
2023-05-10T11:09:22.840Z,48.89
2023-05-10T11:12:07.909Z,52.16
2023-05-10T11:14:52.721Z,47.44
2023-05-10T11:17:37.771Z,46.15
2023-05-10T11:20:22.721Z,48.22
2023-05-10T11:23:07.650Z,49.65
2023-05-10T11:25:52.727Z,47.56
2023-05-10T11:28:37.599Z,46.92
2023-05-10T11:31:22.750Z,47.54
2023-05-10T11:34:07.611Z,47.45
2023-05-10T11:36:52.615Z,41.23
2023-05-10T11:39:37.557Z,41.63
2023-05-10T11:42:22.560Z,46.03
2023-05-10T11:45:07.442Z,48.13
2023-05-10T11:47:52.509Z,50.16
2023-05-10T11:50:37.661Z,46.14
2023-05-10T11:53:23.774Z,44.39
2023-05-10T11:56:10.064Z,44.09
2023-05-10T11:58:55.200Z,45.52
2023-05-10T12:01:40.171Z,46.50
2023-05-10T12:04:25.368Z,44.61
2023-05-10T12:07:10.082Z,42.94
2023-05-10T12:09:55.385Z,45.74
2023-05-10T12:12:40.339Z,46.56
2023-05-10T12:15:25.479Z,47.08
2023-05-10T12:18:10.430Z,46.09
2023-05-10T12:20:55.460Z,46.14
2023-05-10T12:23:40.617Z,48.12
2023-05-10T12:26:25.589Z,46.54
2023-05-10T12:29:10.421Z,46.49
2023-05-10T12:31:55.618Z,45.92
2023-05-10T12:34:40.551Z,44.14
2023-05-10T12:37:25.661Z,44.39
2023-05-10T12:40:10.752Z,44.45
2023-05-10T12:42:55.819Z,45.85
2023-05-10T12:45:40.738Z,44.82
2023-05-10T12:48:25.758Z,44.56
2023-05-10T12:51:10.626Z,43.59
2023-05-10T12:53:55.693Z,45.10
2023-05-10T12:56:40.690Z,44.39
2023-05-10T12:59:25.683Z,45.89
2023-05-10T13:02:10.684Z,42.30
2023-05-10T13:04:55.841Z,41.20
2023-05-10T13:07:40.745Z,40.92
2023-05-10T13:10:25.598Z,43.08
2023-05-10T13:13:10.660Z,39.70
2023-05-10T13:15:55.595Z,40.45
2023-05-10T13:18:40.733Z,38.92
2023-05-10T13:21:25.785Z,37.70
2023-05-10T13:24:10.719Z,38.96
2023-05-10T13:26:55.676Z,36.05
2023-05-10T13:29:41.462Z,37.21
2023-05-10T13:32:27.402Z,36.43
2023-05-10T13:35:12.406Z,38.55
2023-05-10T13:37:57.507Z,38.09
2023-05-10T13:40:42.871Z,37.75
2023-05-10T13:43:27.914Z,35.73
2023-05-10T13:46:12.828Z,34.88
2023-05-10T13:48:57.776Z,35.37
2023-05-10T13:51:42.830Z,36.37
2023-05-10T13:54:27.757Z,36.45
2023-05-10T13:57:12.818Z,36.80
2023-05-10T13:59:57.711Z,37.02
2023-05-10T14:02:42.791Z,37.48
2023-05-10T14:05:28.090Z,37.23
2023-05-10T14:08:13.373Z,39.25
2023-05-10T14:10:58.454Z,37.29
2023-05-10T14:13:43.378Z,37.30
2023-05-10T14:16:28.473Z,36.17
2023-05-10T14:19:13.282Z,36.00
2023-05-10T14:21:58.386Z,36.13
2023-05-10T14:24:43.448Z,38.17
2023-05-10T14:27:28.500Z,35.83
2023-05-10T14:30:13.415Z,34.50
2023-05-10T14:32:58.541Z,34.06
2023-05-10T14:35:43.470Z,34.78
2023-05-10T14:38:28.444Z,35.96
2023-05-10T14:41:13.379Z,35.40
2023-05-10T14:43:58.269Z,35.67
2023-05-10T14:46:43.296Z,35.79
2023-05-10T14:49:28.141Z,34.77
2023-05-10T14:52:13.233Z,33.59
2023-05-10T14:54:58.277Z,35.97
2023-05-10T14:57:43.227Z,36.25
2023-05-10T15:00:28.291Z,35.21
2023-05-10T15:03:13.757Z,35.13
2023-05-10T15:06:01.423Z,34.88
2023-05-10T15:08:46.253Z,34.67
2023-05-10T15:11:31.240Z,35.44
2023-05-10T15:14:16.369Z,35.01
2023-05-10T15:17:01.320Z,35.04
2023-05-10T15:19:46.272Z,34.22
2023-05-10T15:22:32.409Z,33.66
2023-05-10T15:25:18.369Z,34.11
2023-05-10T15:28:03.281Z,35.32
2023-05-10T15:30:47.933Z,36.65
2023-05-10T15:33:33.097Z,36.12
2023-05-10T15:36:18.033Z,36.28
2023-05-10T15:39:03.148Z,38.57
2023-05-10T15:41:48.120Z,37.72
2023-05-10T15:44:33.152Z,38.97
2023-05-10T15:47:17.929Z,37.64
2023-05-10T15:50:02.935Z,37.18
2023-05-10T15:52:47.895Z,36.33
2023-05-10T15:55:32.959Z,35.21
2023-05-10T15:58:18.223Z,35.66
2023-05-10T16:01:03.203Z,34.88
2023-05-10T16:03:48.231Z,33.82
2023-05-10T16:06:33.256Z,33.92
2023-05-10T16:09:18.323Z,35.51
2023-05-10T16:12:03.494Z,36.71
2023-05-10T16:14:48.453Z,36.67
2023-05-10T16:17:33.502Z,37.04
2023-05-10T16:20:18.326Z,36.64
2023-05-10T16:23:03.342Z,38.47
2023-05-10T16:25:48.291Z,38.45
2023-05-10T16:28:33.302Z,38.31
2023-05-10T16:31:18.269Z,39.78
2023-05-10T16:34:03.187Z,39.73
2023-05-10T16:36:48.382Z,39.52
2023-05-10T16:39:35.266Z,39.39
2023-05-10T16:42:20.212Z,39.49
2023-05-10T16:45:04.998Z,38.64
2023-05-10T16:47:50.063Z,38.15
2023-05-10T16:50:34.903Z,38.18
2023-05-10T16:53:19.987Z,40.16
2023-05-10T16:56:05.045Z,40.52
2023-05-10T16:58:50.005Z,39.72
2023-05-10T17:01:35.048Z,40.54
2023-05-10T17:04:20.038Z,39.78
2023-05-10T17:07:05.147Z,40.20
2023-05-10T17:09:50.090Z,39.07
2023-05-10T17:12:35.285Z,40.51
2023-05-10T17:15:20.588Z,41.35
2023-05-10T17:18:05.852Z,39.91
2023-05-10T17:20:50.670Z,39.86
2023-05-10T17:23:35.615Z,39.87
2023-05-10T17:26:20.697Z,39.41
2023-05-10T17:29:05.803Z,39.79
2023-05-10T17:31:50.904Z,37.67
2023-05-10T17:34:35.809Z,39.67
2023-05-10T17:37:20.879Z,38.69
2023-05-10T17:40:05.908Z,37.92
2023-05-10T17:42:50.903Z,39.46
2023-05-10T17:45:36.049Z,37.90
2023-05-10T17:48:21.053Z,37.92
2023-05-10T17:51:06.192Z,38.47
2023-05-10T17:53:54.034Z,39.33
2023-05-10T17:56:39.012Z,38.95
2023-05-10T17:59:23.958Z,40.18
2023-05-10T18:02:08.887Z,40.27
2023-05-10T18:04:54.145Z,39.97
2023-05-10T18:07:38.880Z,41.06
2023-05-10T18:10:23.858Z,39.25
2023-05-10T18:13:09.018Z,39.68
2023-05-10T18:15:53.683Z,39.94
2023-05-10T18:18:38.773Z,41.43
2023-05-10T18:21:23.867Z,40.47
2023-05-10T18:24:08.990Z,41.29
2023-05-10T18:26:53.816Z,41.95
2023-05-10T18:29:38.886Z,42.11
2023-05-10T18:32:23.795Z,42.26
2023-05-10T18:35:08.871Z,43.11
2023-05-10T18:37:53.810Z,43.20
2023-05-10T18:40:38.838Z,43.57
2023-05-10T18:43:23.991Z,41.55
2023-05-10T18:46:08.872Z,40.72
2023-05-10T18:48:53.884Z,43.69
2023-05-10T18:51:38.811Z,43.09
2023-05-10T18:54:23.767Z,42.79
2023-05-10T18:57:08.580Z,44.87
2023-05-10T18:59:53.546Z,45.77
2023-05-10T19:02:38.619Z,45.68
2023-05-10T19:05:23.550Z,45.81
2023-05-10T19:08:08.661Z,45.80
2023-05-10T19:10:53.748Z,46.94
2023-05-10T19:13:38.888Z,46.37
2023-05-10T19:16:23.987Z,46.74
2023-05-10T19:19:09.486Z,47.33
2023-05-10T19:21:54.194Z,47.82
2023-05-10T19:24:39.224Z,48.57
2023-05-10T19:27:24.458Z,47.73
2023-05-10T19:30:09.484Z,47.79
2023-05-10T19:32:54.522Z,48.17
2023-05-10T19:35:39.459Z,48.29
2023-05-10T19:38:24.675Z,47.84
2023-05-10T19:41:09.641Z,47.84
2023-05-10T19:43:54.770Z,47.99
2023-05-10T19:46:39.597Z,48.62
2023-05-10T19:49:24.784Z,48.46
2023-05-10T19:52:11.057Z,48.60
2023-05-10T19:54:56.089Z,48.13
2023-05-10T19:57:41.268Z,47.65
2023-05-10T20:00:26.341Z,47.15
2023-05-10T20:03:11.160Z,47.46
2023-05-10T20:05:56.039Z,46.95
2023-05-10T20:08:40.894Z,47.32
2023-05-10T20:11:25.904Z,49.69
2023-05-10T20:14:10.949Z,50.65
2023-05-10T20:16:56.024Z,49.34
2023-05-10T20:19:40.906Z,47.51
2023-05-10T20:22:26.046Z,52.08
2023-05-10T20:25:11.028Z,53.30
2023-05-10T20:27:55.790Z,53.53
2023-05-10T20:30:41.001Z,53.88
2023-05-10T20:33:25.916Z,55.49
2023-05-10T20:36:11.080Z,56.45
2023-05-10T20:38:56.216Z,55.99
2023-05-10T20:41:41.231Z,56.14
2023-05-10T20:44:26.143Z,57.25
2023-05-10T20:47:11.303Z,58.01
2023-05-10T20:49:56.241Z,56.30
2023-05-10T20:52:41.242Z,56.42
2023-05-10T20:55:26.320Z,57.30
2023-05-10T20:58:11.297Z,57.38
2023-05-10T21:00:56.504Z,56.50
2023-05-10T21:03:41.425Z,55.91
2023-05-10T21:06:26.505Z,55.06
2023-05-10T21:09:11.554Z,52.91
2023-05-10T21:11:56.581Z,51.98
2023-05-10T21:14:41.676Z,53.38
2023-05-10T21:17:26.562Z,53.32
2023-05-10T21:20:11.649Z,53.29
2023-05-10T21:22:56.656Z,53.07
2023-05-10T21:25:41.681Z,57.10
2023-05-10T21:28:26.649Z,58.44
2023-05-10T21:31:11.792Z,58.07
2023-05-10T21:33:56.826Z,57.18
2023-05-10T21:36:41.741Z,56.87
2023-05-10T21:39:26.932Z,57.63
2023-05-10T21:42:11.864Z,56.24
2023-05-10T21:44:56.952Z,55.21
2023-05-10T21:47:41.930Z,54.51
2023-05-10T21:50:26.894Z,55.48
2023-05-10T21:53:11.870Z,59.24
2023-05-10T21:55:56.873Z,57.47
2023-05-10T21:58:41.837Z,57.89
2023-05-10T22:01:26.805Z,56.17
2023-05-10T22:04:11.935Z,55.42
2023-05-10T22:06:56.923Z,53.65
2023-05-10T22:09:41.835Z,53.40
2023-05-10T22:12:26.816Z,53.52
2023-05-10T22:15:11.858Z,53.57
2023-05-10T22:17:57.092Z,52.75
2023-05-10T22:20:41.966Z,55.54
2023-05-10T22:23:27.283Z,56.58
2023-05-10T22:26:12.176Z,55.89
2023-05-10T22:28:57.345Z,54.70
2023-05-10T22:31:42.350Z,55.93
2023-05-10T22:34:27.497Z,55.72
2023-05-10T22:37:12.500Z,55.46
2023-05-10T22:39:57.490Z,55.28
2023-05-10T22:42:42.441Z,55.57
2023-05-10T22:45:27.454Z,54.80
2023-05-10T22:48:12.521Z,55.47
2023-05-10T22:50:57.417Z,56.63
2023-05-10T22:53:42.631Z,55.50
2023-05-10T22:56:27.512Z,55.03
2023-05-10T22:59:12.689Z,54.61
2023-05-10T23:01:57.743Z,54.41
2023-05-10T23:04:42.767Z,55.47
2023-05-10T23:07:27.971Z,54.76
2023-05-10T23:10:13.174Z,53.99
2023-05-10T23:12:58.138Z,53.45
2023-05-10T23:15:43.090Z,53.39
2023-05-10T23:18:28.173Z,53.22
2023-05-10T23:21:13.048Z,51.93
2023-05-10T23:23:58.066Z,53.42
2023-05-10T23:26:43.136Z,54.46
2023-05-10T23:29:28.213Z,54.45
2023-05-10T23:32:13.473Z,54.64
2023-05-10T23:34:58.347Z,54.84
2023-05-10T23:37:43.465Z,54.22
2023-05-10T23:40:28.309Z,54.55
2023-05-10T23:43:13.289Z,54.49
2023-05-10T23:45:58.501Z,55.81
2023-05-10T23:48:43.445Z,56.91
2023-05-10T23:51:28.741Z,56.21
2023-05-10T23:54:13.566Z,56.02
2023-05-10T23:56:58.900Z,55.54
2023-05-10T23:59:43.904Z,56.14
